sensor_id;sensor_type;location;lat;lon;timestamp;pressure;altitude;pressure_sealevel;temperature;humidity
59951;BME280;45812;53.540;9.774;2023-03-15T00:00:51;100693.66;;;0.15;100.00
59951;BME280;45812;53.540;9.774;2023-03-15T00:03:17;100696.59;;;0.10;100.00
59951;BME280;45812;53.540;9.774;2023-03-15T00:05:44;100702.09;;;0.20;100.00
59951;BME280;45812;53.540;9.774;2023-03-15T00:08:11;100709.88;;;0.07;100.00
59951;BME280;45812;53.540;9.774;2023-03-15T00:10:43;100709.13;;;0.32;100.00
59951;BME280;45812;53.540;9.774;2023-03-15T00:13:10;100712.03;;;0.01;100.00
59951;BME280;45812;53.540;9.774;2023-03-15T00:15:35;100712.19;;;0.12;100.00
59951;BME280;45812;53.540;9.774;2023-03-15T00:18:01;100729.88;;;0.08;100.00
59951;BME280;45812;53.540;9.774;2023-03-15T00:20:29;100724.63;;;0.08;100.00
59951;BME280;45812;53.540;9.774;2023-03-15T00:22:54;100726.94;;;0.13;100.00
59951;BME280;45812;53.540;9.774;2023-03-15T00:25:20;100723.63;;;-0.04;100.00
59951;BME280;45812;53.540;9.774;2023-03-15T00:27:45;100726.91;;;0.00;100.00
59951;BME280;45812;53.540;9.774;2023-03-15T00:30:10;100726.81;;;0.02;100.00
59951;BME280;45812;53.540;9.774;2023-03-15T00:32:36;100735.19;;;0.07;100.00
59951;BME280;45812;53.540;9.774;2023-03-15T00:35:01;100733.63;;;0.31;100.00
59951;BME280;45812;53.540;9.774;2023-03-15T00:37:26;100733.22;;;0.37;100.00
59951;BME280;45812;53.540;9.774;2023-03-15T00:39:51;100741.50;;;0.17;100.00
59951;BME280;45812;53.540;9.774;2023-03-15T00:42:19;100748.34;;;0.19;100.00
59951;BME280;45812;53.540;9.774;2023-03-15T00:44:45;100738.34;;;0.12;100.00
59951;BME280;45812;53.540;9.774;2023-03-15T00:47:11;100752.38;;;0.11;100.00
59951;BME280;45812;53.540;9.774;2023-03-15T00:49:38;100753.03;;;0.14;100.00
59951;BME280;45812;53.540;9.774;2023-03-15T00:52:04;100755.72;;;0.27;100.00
59951;BME280;45812;53.540;9.774;2023-03-15T00:54:29;100754.78;;;0.28;100.00
59951;BME280;45812;53.540;9.774;2023-03-15T00:56:58;100771.13;;;0.32;100.00
59951;BME280;45812;53.540;9.774;2023-03-15T00:59:23;100779.28;;;0.27;100.00
59951;BME280;45812;53.540;9.774;2023-03-15T01:01:48;100779.22;;;0.41;100.00
59951;BME280;45812;53.540;9.774;2023-03-15T01:04:14;100777.16;;;0.46;100.00
59951;BME280;45812;53.540;9.774;2023-03-15T01:06:39;100778.00;;;0.47;100.00
59951;BME280;45812;53.540;9.774;2023-03-15T01:09:07;100773.38;;;0.50;100.00
59951;BME280;45812;53.540;9.774;2023-03-15T01:11:32;100787.03;;;0.55;100.00
59951;BME280;45812;53.540;9.774;2023-03-15T01:13:58;100777.75;;;0.64;100.00
59951;BME280;45812;53.540;9.774;2023-03-15T01:16:24;100780.59;;;0.74;100.00
59951;BME280;45812;53.540;9.774;2023-03-15T01:18:50;100781.81;;;0.95;100.00
59951;BME280;45812;53.540;9.774;2023-03-15T01:21:16;100779.91;;;0.84;100.00
59951;BME280;45812;53.540;9.774;2023-03-15T01:23:41;100787.84;;;0.83;100.00
59951;BME280;45812;53.540;9.774;2023-03-15T01:26:09;100790.16;;;0.87;100.00
59951;BME280;45812;53.540;9.774;2023-03-15T01:28:35;100791.41;;;0.82;100.00
59951;BME280;45812;53.540;9.774;2023-03-15T01:31:00;100800.44;;;0.78;100.00
59951;BME280;45812;53.540;9.774;2023-03-15T01:33:26;100791.97;;;0.60;100.00
59951;BME280;45812;53.540;9.774;2023-03-15T01:36:03;100806.84;;;0.59;100.00
59951;BME280;45812;53.540;9.774;2023-03-15T01:38:29;100803.03;;;0.51;100.00
59951;BME280;45812;53.540;9.774;2023-03-15T01:40:55;100806.09;;;0.84;100.00
59951;BME280;45812;53.540;9.774;2023-03-15T01:43:22;100808.53;;;0.60;100.00
59951;BME280;45812;53.540;9.774;2023-03-15T01:48:32;100812.88;;;0.74;100.00
59951;BME280;45812;53.540;9.774;2023-03-15T01:51:00;100824.75;;;0.80;100.00
59951;BME280;45812;53.540;9.774;2023-03-15T01:53:29;100828.09;;;0.82;100.00
59951;BME280;45812;53.540;9.774;2023-03-15T01:55:56;100824.06;;;0.64;100.00
59951;BME280;45812;53.540;9.774;2023-03-15T01:58:23;100829.09;;;0.67;100.00
59951;BME280;45812;53.540;9.774;2023-03-15T02:00:51;100831.41;;;0.71;100.00
59951;BME280;45812;53.540;9.774;2023-03-15T02:03:20;100822.03;;;0.81;100.00
59951;BME280;45812;53.540;9.774;2023-03-15T02:05:51;100826.53;;;0.92;100.00
59951;BME280;45812;53.540;9.774;2023-03-15T02:08:21;100822.56;;;0.86;100.00
59951;BME280;45812;53.540;9.774;2023-03-15T02:10:50;100829.31;;;1.03;100.00
59951;BME280;45812;53.540;9.774;2023-03-15T02:13:18;100830.66;;;0.96;100.00
59951;BME280;45812;53.540;9.774;2023-03-15T02:15:47;100832.56;;;0.94;100.00
59951;BME280;45812;53.540;9.774;2023-03-15T02:18:13;100842.19;;;0.94;100.00
59951;BME280;45812;53.540;9.774;2023-03-15T02:21:13;100853.66;;;0.78;100.00
59951;BME280;45812;53.540;9.774;2023-03-15T02:23:43;100846.25;;;0.85;100.00
59951;BME280;45812;53.540;9.774;2023-03-15T02:26:29;100844.94;;;1.05;100.00
59951;BME280;45812;53.540;9.774;2023-03-15T02:28:56;100840.22;;;0.97;100.00
59951;BME280;45812;53.540;9.774;2023-03-15T02:31:21;100841.88;;;0.98;100.00
59951;BME280;45812;53.540;9.774;2023-03-15T02:33:51;100850.19;;;1.05;100.00
59951;BME280;45812;53.540;9.774;2023-03-15T02:36:24;100852.50;;;1.09;100.00
59951;BME280;45812;53.540;9.774;2023-03-15T02:38:51;100856.25;;;1.05;100.00
59951;BME280;45812;53.540;9.774;2023-03-15T02:41:25;100856.06;;;1.08;100.00
59951;BME280;45812;53.540;9.774;2023-03-15T02:43:54;100862.03;;;1.10;100.00
59951;BME280;45812;53.540;9.774;2023-03-15T02:46:23;100865.00;;;0.91;100.00
59951;BME280;45812;53.540;9.774;2023-03-15T02:48:49;100877.63;;;0.99;100.00
59951;BME280;45812;53.540;9.774;2023-03-15T02:51:26;100866.94;;;1.02;100.00
59951;BME280;45812;53.540;9.774;2023-03-15T02:53:52;100873.44;;;0.97;100.00
59951;BME280;45812;53.540;9.774;2023-03-15T02:56:17;100877.59;;;0.86;100.00
59951;BME280;45812;53.540;9.774;2023-03-15T02:58:43;100874.72;;;0.77;100.00
59951;BME280;45812;53.540;9.774;2023-03-15T03:01:10;100879.06;;;0.90;100.00
59951;BME280;45812;53.540;9.774;2023-03-15T03:03:37;100886.00;;;1.18;100.00
59951;BME280;45812;53.540;9.774;2023-03-15T03:06:02;100892.97;;;1.05;100.00
59951;BME280;45812;53.540;9.774;2023-03-15T03:08:28;100900.25;;;1.14;100.00
59951;BME280;45812;53.540;9.774;2023-03-15T03:10:53;100896.56;;;1.17;100.00
59951;BME280;45812;53.540;9.774;2023-03-15T03:13:18;100903.84;;;0.99;100.00
59951;BME280;45812;53.540;9.774;2023-03-15T03:15:43;100913.72;;;1.08;100.00
59951;BME280;45812;53.540;9.774;2023-03-15T03:18:09;100914.13;;;1.02;100.00
59951;BME280;45812;53.540;9.774;2023-03-15T03:20:35;100915.59;;;1.06;100.00
59951;BME280;45812;53.540;9.774;2023-03-15T03:23:00;100920.63;;;0.97;100.00
59951;BME280;45812;53.540;9.774;2023-03-15T03:25:30;100917.53;;;0.90;100.00
59951;BME280;45812;53.540;9.774;2023-03-15T03:27:56;100934.66;;;0.96;100.00
59951;BME280;45812;53.540;9.774;2023-03-15T03:30:23;100923.97;;;0.99;100.00
59951;BME280;45812;53.540;9.774;2023-03-15T03:32:48;100936.28;;;1.11;100.00
59951;BME280;45812;53.540;9.774;2023-03-15T03:35:14;100941.34;;;1.14;100.00
59951;BME280;45812;53.540;9.774;2023-03-15T03:37:39;100949.84;;;1.17;100.00
59951;BME280;45812;53.540;9.774;2023-03-15T03:40:05;100959.34;;;1.33;100.00
59951;BME280;45812;53.540;9.774;2023-03-15T03:42:32;100959.84;;;1.52;100.00
59951;BME280;45812;53.540;9.774;2023-03-15T03:44:57;100965.91;;;1.52;100.00
59951;BME280;45812;53.540;9.774;2023-03-15T03:47:23;100975.78;;;1.62;100.00
59951;BME280;45812;53.540;9.774;2023-03-15T03:49:48;100970.53;;;1.49;100.00
59951;BME280;45812;53.540;9.774;2023-03-15T03:52:13;100977.53;;;1.48;100.00
59951;BME280;45812;53.540;9.774;2023-03-15T03:54:38;100983.19;;;1.15;100.00
59951;BME280;45812;53.540;9.774;2023-03-15T03:57:06;100987.78;;;1.12;100.00
59951;BME280;45812;53.540;9.774;2023-03-15T03:59:32;100988.16;;;1.06;100.00
59951;BME280;45812;53.540;9.774;2023-03-15T04:01:57;100983.41;;;1.12;100.00
59951;BME280;45812;53.540;9.774;2023-03-15T04:04:22;100993.53;;;0.90;100.00
59951;BME280;45812;53.540;9.774;2023-03-15T04:06:50;100993.06;;;0.83;100.00
59951;BME280;45812;53.540;9.774;2023-03-15T04:09:15;101004.22;;;0.73;100.00
59951;BME280;45812;53.540;9.774;2023-03-15T04:11:41;101009.28;;;0.76;100.00
59951;BME280;45812;53.540;9.774;2023-03-15T04:14:09;101005.94;;;0.59;100.00
59951;BME280;45812;53.540;9.774;2023-03-15T04:16:34;101009.94;;;0.79;100.00
59951;BME280;45812;53.540;9.774;2023-03-15T04:18:59;101014.72;;;0.58;100.00
59951;BME280;45812;53.540;9.774;2023-03-15T04:21:25;101017.28;;;0.16;100.00
59951;BME280;45812;53.540;9.774;2023-03-15T04:23:50;101019.06;;;0.15;100.00
59951;BME280;45812;53.540;9.774;2023-03-15T04:26:15;101027.59;;;0.19;100.00
59951;BME280;45812;53.540;9.774;2023-03-15T04:28:40;101031.16;;;0.32;100.00
59951;BME280;45812;53.540;9.774;2023-03-15T04:31:06;101032.28;;;0.28;100.00
59951;BME280;45812;53.540;9.774;2023-03-15T04:33:34;101037.88;;;0.22;100.00
59951;BME280;45812;53.540;9.774;2023-03-15T04:36:00;101038.78;;;0.07;100.00
59951;BME280;45812;53.540;9.774;2023-03-15T04:38:27;101043.06;;;0.08;100.00
59951;BME280;45812;53.540;9.774;2023-03-15T04:40:53;101047.59;;;-0.10;100.00
59951;BME280;45812;53.540;9.774;2023-03-15T04:43:21;101049.75;;;-0.03;100.00
59951;BME280;45812;53.540;9.774;2023-03-15T04:45:48;101040.44;;;-0.22;100.00
59951;BME280;45812;53.540;9.774;2023-03-15T04:48:13;101037.06;;;-0.24;100.00
59951;BME280;45812;53.540;9.774;2023-03-15T04:50:39;101044.75;;;-0.21;100.00
59951;BME280;45812;53.540;9.774;2023-03-15T04:53:04;101057.34;;;-0.28;100.00
59951;BME280;45812;53.540;9.774;2023-03-15T04:55:29;101055.22;;;-0.21;100.00
59951;BME280;45812;53.540;9.774;2023-03-15T04:57:54;101057.53;;;-0.31;100.00
59951;BME280;45812;53.540;9.774;2023-03-15T05:00:20;101066.88;;;-0.27;100.00
59951;BME280;45812;53.540;9.774;2023-03-15T05:02:46;101068.91;;;-0.16;100.00
59951;BME280;45812;53.540;9.774;2023-03-15T05:05:19;101073.81;;;-0.42;100.00
59951;BME280;45812;53.540;9.774;2023-03-15T05:07:44;101077.69;;;-0.49;100.00
59951;BME280;45812;53.540;9.774;2023-03-15T05:10:10;101080.97;;;-0.29;100.00
59951;BME280;45812;53.540;9.774;2023-03-15T05:12:35;101089.75;;;-0.31;100.00
59951;BME280;45812;53.540;9.774;2023-03-15T05:15:01;101094.72;;;-0.26;100.00
59951;BME280;45812;53.540;9.774;2023-03-15T05:17:26;101093.38;;;-0.33;100.00
59951;BME280;45812;53.540;9.774;2023-03-15T05:19:51;101099.28;;;-0.29;100.00
59951;BME280;45812;53.540;9.774;2023-03-15T05:22:17;101110.41;;;-0.26;100.00
59951;BME280;45812;53.540;9.774;2023-03-15T05:24:43;101115.69;;;0.04;100.00
59951;BME280;45812;53.540;9.774;2023-03-15T05:27:09;101110.00;;;0.12;100.00
59951;BME280;45812;53.540;9.774;2023-03-15T05:29:35;101120.28;;;0.15;100.00
59951;BME280;45812;53.540;9.774;2023-03-15T05:32:01;101123.56;;;0.18;100.00
59951;BME280;45812;53.540;9.774;2023-03-15T05:34:28;101122.78;;;0.02;100.00
59951;BME280;45812;53.540;9.774;2023-03-15T05:36:53;101121.88;;;-0.13;100.00
59951;BME280;45812;53.540;9.774;2023-03-15T05:39:19;101128.97;;;-0.15;100.00
59951;BME280;45812;53.540;9.774;2023-03-15T05:41:46;101125.16;;;-0.09;100.00
59951;BME280;45812;53.540;9.774;2023-03-15T05:44:12;101135.53;;;0.08;100.00
59951;BME280;45812;53.540;9.774;2023-03-15T05:46:37;101129.72;;;0.03;100.00
59951;BME280;45812;53.540;9.774;2023-03-15T05:49:02;101134.34;;;-0.02;100.00
59951;BME280;45812;53.540;9.774;2023-03-15T05:51:28;101148.22;;;0.00;100.00
59951;BME280;45812;53.540;9.774;2023-03-15T05:53:53;101148.03;;;0.03;100.00
59951;BME280;45812;53.540;9.774;2023-03-15T05:56:18;101152.34;;;0.34;100.00
59951;BME280;45812;53.540;9.774;2023-03-15T05:58:44;101155.66;;;0.38;100.00
59951;BME280;45812;53.540;9.774;2023-03-15T06:01:09;101159.47;;;0.16;100.00
59951;BME280;45812;53.540;9.774;2023-03-15T06:03:34;101167.09;;;0.05;100.00
59951;BME280;45812;53.540;9.774;2023-03-15T06:06:00;101173.34;;;0.03;100.00
59951;BME280;45812;53.540;9.774;2023-03-15T06:08:25;101190.22;;;0.13;100.00
59951;BME280;45812;53.540;9.774;2023-03-15T06:10:51;101186.75;;;-0.04;100.00
59951;BME280;45812;53.540;9.774;2023-03-15T06:13:16;101191.91;;;-0.02;100.00
59951;BME280;45812;53.540;9.774;2023-03-15T06:15:42;101186.84;;;-0.05;100.00
59951;BME280;45812;53.540;9.774;2023-03-15T06:18:07;101193.53;;;0.01;100.00
59951;BME280;45812;53.540;9.774;2023-03-15T06:20:33;101194.28;;;0.03;100.00
59951;BME280;45812;53.540;9.774;2023-03-15T06:22:58;101196.31;;;-0.03;100.00
59951;BME280;45812;53.540;9.774;2023-03-15T06:25:23;101191.41;;;-0.09;100.00
59951;BME280;45812;53.540;9.774;2023-03-15T06:27:49;101197.00;;;0.01;100.00
59951;BME280;45812;53.540;9.774;2023-03-15T06:30:14;101197.66;;;0.05;100.00
59951;BME280;45812;53.540;9.774;2023-03-15T06:32:40;101218.59;;;0.05;100.00
59951;BME280;45812;53.540;9.774;2023-03-15T06:35:05;101210.66;;;0.22;100.00
59951;BME280;45812;53.540;9.774;2023-03-15T06:37:31;101213.75;;;0.28;100.00
59951;BME280;45812;53.540;9.774;2023-03-15T06:39:57;101217.63;;;0.37;100.00
59951;BME280;45812;53.540;9.774;2023-03-15T06:42:22;101227.31;;;0.51;100.00
59951;BME280;45812;53.540;9.774;2023-03-15T06:44:47;101226.81;;;0.60;100.00
59951;BME280;45812;53.540;9.774;2023-03-15T06:47:12;101234.63;;;0.90;100.00
59951;BME280;45812;53.540;9.774;2023-03-15T06:49:38;101232.59;;;1.09;100.00
59951;BME280;45812;53.540;9.774;2023-03-15T06:52:04;101242.19;;;1.39;100.00
59951;BME280;45812;53.540;9.774;2023-03-15T06:54:30;101237.53;;;1.58;100.00
59951;BME280;45812;53.540;9.774;2023-03-15T06:56:55;101231.34;;;1.59;100.00
59951;BME280;45812;53.540;9.774;2023-03-15T06:59:21;101243.03;;;1.82;100.00
59951;BME280;45812;53.540;9.774;2023-03-15T07:01:46;101246.06;;;2.03;100.00
59951;BME280;45812;53.540;9.774;2023-03-15T07:04:12;101254.16;;;1.86;100.00
59951;BME280;45812;53.540;9.774;2023-03-15T07:06:37;101258.66;;;1.83;100.00
59951;BME280;45812;53.540;9.774;2023-03-15T07:09:03;101275.34;;;1.97;100.00
59951;BME280;45812;53.540;9.774;2023-03-15T07:11:29;101299.38;;;2.05;100.00
59951;BME280;45812;53.540;9.774;2023-03-15T07:13:54;101315.00;;;1.64;100.00
59951;BME280;45812;53.540;9.774;2023-03-15T07:16:20;101317.50;;;1.37;100.00
59951;BME280;45812;53.540;9.774;2023-03-15T07:18:45;101329.72;;;0.92;100.00
59951;BME280;45812;53.540;9.774;2023-03-15T07:21:10;101332.56;;;0.73;100.00
59951;BME280;45812;53.540;9.774;2023-03-15T07:23:36;101331.75;;;0.57;100.00
59951;BME280;45812;53.540;9.774;2023-03-15T07:26:01;101308.59;;;0.65;100.00
59951;BME280;45812;53.540;9.774;2023-03-15T07:28:27;101306.31;;;0.89;100.00
59951;BME280;45812;53.540;9.774;2023-03-15T07:31:00;101298.00;;;0.82;100.00
59951;BME280;45812;53.540;9.774;2023-03-15T07:33:27;101291.25;;;0.93;100.00
59951;BME280;45812;53.540;9.774;2023-03-15T07:35:53;101300.53;;;1.14;100.00
59951;BME280;45812;53.540;9.774;2023-03-15T07:38:23;101303.00;;;1.01;100.00
59951;BME280;45812;53.540;9.774;2023-03-15T07:40:49;101319.13;;;0.79;100.00
59951;BME280;45812;53.540;9.774;2023-03-15T07:43:14;101317.63;;;0.75;100.00
59951;BME280;45812;53.540;9.774;2023-03-15T07:45:40;101328.09;;;0.75;100.00
59951;BME280;45812;53.540;9.774;2023-03-15T07:48:06;101323.53;;;0.79;100.00
59951;BME280;45812;53.540;9.774;2023-03-15T07:50:31;101331.81;;;0.71;100.00
59951;BME280;45812;53.540;9.774;2023-03-15T07:52:57;101330.34;;;0.97;100.00
59951;BME280;45812;53.540;9.774;2023-03-15T07:55:22;101328.50;;;0.83;100.00
59951;BME280;45812;53.540;9.774;2023-03-15T07:57:47;101333.44;;;1.04;100.00
59951;BME280;45812;53.540;9.774;2023-03-15T08:00:13;101336.38;;;1.13;100.00
59951;BME280;45812;53.540;9.774;2023-03-15T08:02:39;101332.84;;;1.14;100.00
59951;BME280;45812;53.540;9.774;2023-03-15T08:05:05;101341.50;;;1.31;100.00
59951;BME280;45812;53.540;9.774;2023-03-15T08:07:30;101339.28;;;1.53;100.00
59951;BME280;45812;53.540;9.774;2023-03-15T08:09:56;101342.84;;;1.66;100.00
59951;BME280;45812;53.540;9.774;2023-03-15T08:12:24;101355.41;;;1.75;100.00
59951;BME280;45812;53.540;9.774;2023-03-15T08:14:49;101368.66;;;1.88;100.00
59951;BME280;45812;53.540;9.774;2023-03-15T08:17:15;101374.47;;;1.93;100.00
59951;BME280;45812;53.540;9.774;2023-03-15T08:19:41;101367.78;;;2.02;100.00
59951;BME280;45812;53.540;9.774;2023-03-15T08:22:06;101359.38;;;1.97;100.00
59951;BME280;45812;53.540;9.774;2023-03-15T08:24:31;101366.97;;;1.87;100.00
59951;BME280;45812;53.540;9.774;2023-03-15T08:26:57;101382.88;;;1.84;100.00
59951;BME280;45812;53.540;9.774;2023-03-15T08:29:22;101375.94;;;1.83;100.00
59951;BME280;45812;53.540;9.774;2023-03-15T08:31:47;101372.03;;;1.90;100.00
59951;BME280;45812;53.540;9.774;2023-03-15T08:34:12;101378.13;;;1.91;100.00
59951;BME280;45812;53.540;9.774;2023-03-15T08:36:38;101381.75;;;1.74;100.00
59951;BME280;45812;53.540;9.774;2023-03-15T08:39:03;101394.81;;;1.90;100.00
59951;BME280;45812;53.540;9.774;2023-03-15T08:41:30;101387.50;;;1.95;100.00
59951;BME280;45812;53.540;9.774;2023-03-15T08:43:55;101390.28;;;2.20;100.00
59951;BME280;45812;53.540;9.774;2023-03-15T08:46:20;101397.66;;;2.70;100.00
59951;BME280;45812;53.540;9.774;2023-03-15T08:48:46;101409.81;;;2.86;100.00
59951;BME280;45812;53.540;9.774;2023-03-15T08:51:11;101411.03;;;3.34;100.00
59951;BME280;45812;53.540;9.774;2023-03-15T08:53:37;101413.25;;;3.80;100.00
59951;BME280;45812;53.540;9.774;2023-03-15T08:56:02;101408.06;;;4.04;100.00
59951;BME280;45812;53.540;9.774;2023-03-15T08:58:28;101430.84;;;4.30;100.00
59951;BME280;45812;53.540;9.774;2023-03-15T09:00:54;101423.00;;;4.41;99.83
59951;BME280;45812;53.540;9.774;2023-03-15T09:03:19;101447.25;;;3.83;99.60
59951;BME280;45812;53.540;9.774;2023-03-15T09:05:46;101470.53;;;2.95;100.00
59951;BME280;45812;53.540;9.774;2023-03-15T09:08:11;101446.84;;;2.54;100.00
59951;BME280;45812;53.540;9.774;2023-03-15T09:10:38;101459.59;;;2.74;100.00
59951;BME280;45812;53.540;9.774;2023-03-15T09:13:03;101452.66;;;2.59;100.00
59951;BME280;45812;53.540;9.774;2023-03-15T09:15:28;101448.97;;;2.76;100.00
59951;BME280;45812;53.540;9.774;2023-03-15T09:17:54;101441.31;;;2.59;100.00
59951;BME280;45812;53.540;9.774;2023-03-15T09:20:20;101444.44;;;2.37;100.00
59951;BME280;45812;53.540;9.774;2023-03-15T09:22:54;101438.53;;;2.33;100.00
59951;BME280;45812;53.540;9.774;2023-03-15T09:25:21;101443.56;;;2.65;100.00
59951;BME280;45812;53.540;9.774;2023-03-15T09:27:47;101442.47;;;3.23;100.00
59951;BME280;45812;53.540;9.774;2023-03-15T09:30:13;101446.44;;;3.95;100.00
59951;BME280;45812;53.540;9.774;2023-03-15T09:32:39;101446.09;;;4.50;100.00
59951;BME280;45812;53.540;9.774;2023-03-15T09:35:06;101439.19;;;4.73;100.00
59951;BME280;45812;53.540;9.774;2023-03-15T09:37:32;101437.41;;;4.98;100.00
59951;BME280;45812;53.540;9.774;2023-03-15T09:39:57;101444.81;;;5.05;100.00
59951;BME280;45812;53.540;9.774;2023-03-15T09:48:08;101447.88;;;7.27;87.24
59951;BME280;45812;53.540;9.774;2023-03-15T09:50:42;101459.63;;;7.67;81.12
59951;BME280;45812;53.540;9.774;2023-03-15T09:53:19;101450.78;;;7.13;81.94
59951;BME280;45812;53.540;9.774;2023-03-15T09:55:48;101466.75;;;7.23;80.93
59951;BME280;45812;53.540;9.774;2023-03-15T09:58:23;101453.38;;;6.92;78.33
59951;BME280;45812;53.540;9.774;2023-03-15T10:00:58;101456.38;;;5.74;87.25
59951;BME280;45812;53.540;9.774;2023-03-15T10:03:45;101479.53;;;4.24;96.46
59951;BME280;45812;53.540;9.774;2023-03-15T10:08:41;101478.31;;;3.38;100.00
59951;BME280;45812;53.540;9.774;2023-03-15T10:11:17;101486.06;;;3.54;100.00
59951;BME280;45812;53.540;9.774;2023-03-15T10:13:56;101474.47;;;3.17;100.00
59951;BME280;45812;53.540;9.774;2023-03-15T10:16:38;101485.94;;;3.01;100.00
59951;BME280;45812;53.540;9.774;2023-03-15T10:19:12;101474.38;;;2.63;100.00
59951;BME280;45812;53.540;9.774;2023-03-15T10:21:56;101478.25;;;2.98;100.00
59951;BME280;45812;53.540;9.774;2023-03-15T10:24:34;101468.75;;;3.77;100.00
59951;BME280;45812;53.540;9.774;2023-03-15T10:27:13;101478.53;;;3.75;100.00
59951;BME280;45812;53.540;9.774;2023-03-15T10:29:38;101466.59;;;3.56;100.00
59951;BME280;45812;53.540;9.774;2023-03-15T10:32:04;101465.75;;;3.69;100.00
59951;BME280;45812;53.540;9.774;2023-03-15T10:34:30;101464.66;;;4.23;100.00
59951;BME280;45812;53.540;9.774;2023-03-15T10:36:55;101462.69;;;5.13;89.50
59951;BME280;45812;53.540;9.774;2023-03-15T10:39:23;101496.91;;;5.38;86.27
59951;BME280;45812;53.540;9.774;2023-03-15T10:41:49;101483.56;;;4.92;87.83
59951;BME280;45812;53.540;9.774;2023-03-15T10:44:25;101474.03;;;4.53;88.66
59951;BME280;45812;53.540;9.774;2023-03-15T10:47:04;101486.75;;;5.21;89.41
59951;BME280;45812;53.540;9.774;2023-03-15T10:49:35;101490.03;;;6.19;80.17
59951;BME280;45812;53.540;9.774;2023-03-15T10:52:01;101485.72;;;7.71;74.45
59951;BME280;45812;53.540;9.774;2023-03-15T10:54:26;101491.00;;;7.82;72.12
59951;BME280;45812;53.540;9.774;2023-03-15T10:57:03;101493.13;;;9.51;62.24
59951;BME280;45812;53.540;9.774;2023-03-15T10:59:34;101487.50;;;10.96;56.52
59951;BME280;45812;53.540;9.774;2023-03-15T11:04:42;101492.22;;;11.29;55.73
59951;BME280;45812;53.540;9.774;2023-03-15T11:07:08;101493.16;;;11.38;53.78
59951;BME280;45812;53.540;9.774;2023-03-15T11:09:42;101509.22;;;11.99;48.25
59951;BME280;45812;53.540;9.774;2023-03-15T11:12:34;101495.47;;;10.68;50.85
59951;BME280;45812;53.540;9.774;2023-03-15T11:15:05;101516.56;;;10.52;54.06
59951;BME280;45812;53.540;9.774;2023-03-15T11:17:40;101517.28;;;11.36;51.13
59951;BME280;45812;53.540;9.774;2023-03-15T11:20:30;101516.00;;;11.40;51.94
59951;BME280;45812;53.540;9.774;2023-03-15T11:22:57;101517.22;;;12.43;53.42
59951;BME280;45812;53.540;9.774;2023-03-15T11:25:27;101518.34;;;11.43;51.09
59951;BME280;45812;53.540;9.774;2023-03-15T11:27:55;101517.94;;;10.56;49.13
59951;BME280;45812;53.540;9.774;2023-03-15T11:30:26;101530.00;;;9.25;54.14
59951;BME280;45812;53.540;9.774;2023-03-15T11:32:52;101516.63;;;8.56;59.12
59951;BME280;45812;53.540;9.774;2023-03-15T11:35:26;101514.69;;;8.37;63.45
59951;BME280;45812;53.540;9.774;2023-03-15T11:37:57;101513.78;;;8.78;62.63
59951;BME280;45812;53.540;9.774;2023-03-15T11:40:29;101520.63;;;8.50;64.29
59951;BME280;45812;53.540;9.774;2023-03-15T11:43:00;101520.25;;;11.06;55.62
59951;BME280;45812;53.540;9.774;2023-03-15T11:45:34;101519.84;;;10.73;52.48
59951;BME280;45812;53.540;9.774;2023-03-15T11:48:06;101536.84;;;9.27;54.08
59951;BME280;45812;53.540;9.774;2023-03-15T11:50:35;101547.63;;;7.81;62.74
59951;BME280;45812;53.540;9.774;2023-03-15T11:53:01;101533.72;;;6.80;73.11
59951;BME280;45812;53.540;9.774;2023-03-15T11:55:28;101556.53;;;6.01;81.42
59951;BME280;45812;53.540;9.774;2023-03-15T11:57:54;101549.03;;;6.19;85.95
59951;BME280;45812;53.540;9.774;2023-03-15T12:03:28;101545.31;;;9.71;69.44
59951;BME280;45812;53.540;9.774;2023-03-15T12:08:49;101561.56;;;10.45;59.65
59951;BME280;45812;53.540;9.774;2023-03-15T12:14:02;101565.06;;;9.88;52.04
59951;BME280;45812;53.540;9.774;2023-03-15T12:16:30;101589.47;;;8.52;57.52
59951;BME280;45812;53.540;9.774;2023-03-15T12:19:17;101605.28;;;7.01;68.21
59951;BME280;45812;53.540;9.774;2023-03-15T12:21:49;101613.00;;;5.64;79.28
59951;BME280;45812;53.540;9.774;2023-03-15T12:24:33;101608.50;;;4.78;86.12
59951;BME280;45812;53.540;9.774;2023-03-15T12:27:14;101575.16;;;5.03;88.33
59951;BME280;45812;53.540;9.774;2023-03-15T12:29:43;101593.19;;;5.22;88.69
59951;BME280;45812;53.540;9.774;2023-03-15T12:32:19;101591.28;;;4.98;90.88
59951;BME280;45812;53.540;9.774;2023-03-15T12:34:47;101595.63;;;4.74;91.95
59951;BME280;45812;53.540;9.774;2023-03-15T12:37:17;101594.00;;;5.22;92.05
59951;BME280;45812;53.540;9.774;2023-03-15T12:39:58;101586.50;;;8.13;74.03
59951;BME280;45812;53.540;9.774;2023-03-15T12:55:56;101560.75;;;17.93;36.73
59951;BME280;45812;53.540;9.774;2023-03-15T12:58:33;101567.56;;;17.68;34.77
59951;BME280;45812;53.540;9.774;2023-03-15T13:01:01;101573.69;;;17.83;35.00
59951;BME280;45812;53.540;9.774;2023-03-15T13:03:29;101572.75;;;18.12;33.35
59951;BME280;45812;53.540;9.774;2023-03-15T13:06:00;101565.88;;;18.31;33.27
59951;BME280;45812;53.540;9.774;2023-03-15T13:08:46;101558.50;;;18.67;31.37
59951;BME280;45812;53.540;9.774;2023-03-15T13:11:36;101569.50;;;16.41;33.99
59951;BME280;45812;53.540;9.774;2023-03-15T13:19:30;101560.63;;;17.29;33.29
59951;BME280;45812;53.540;9.774;2023-03-15T13:29:35;101565.50;;;12.76;37.89
59951;BME280;45812;53.540;9.774;2023-03-15T13:32:21;101569.53;;;11.47;38.80
59951;BME280;45812;53.540;9.774;2023-03-15T13:34:47;101581.25;;;9.56;43.14
59951;BME280;45812;53.540;9.774;2023-03-15T13:37:15;101563.44;;;10.72;42.05
59951;BME280;45812;53.540;9.774;2023-03-15T13:42:22;101576.06;;;9.04;46.46
59951;BME280;45812;53.540;9.774;2023-03-15T13:45:01;101572.63;;;8.83;47.64